createdAt,value
2019-03-13T00:00:59.568Z,63.22
2019-03-13T00:03:30.014Z,64.64
2019-03-13T00:06:00.434Z,65.87
2019-03-13T00:08:30.731Z,66.88
2019-03-13T00:11:01.009Z,68.08
2019-03-13T00:13:31.375Z,67.98
2019-03-13T00:16:01.747Z,68.32
2019-03-13T00:18:32.058Z,69.91
2019-03-13T00:21:02.338Z,71.30
2019-03-13T00:23:32.630Z,73.46
2019-03-13T00:26:02.830Z,74.68
2019-03-13T00:28:33.227Z,75.15
2019-03-13T00:31:03.703Z,75.56
2019-03-13T00:33:33.855Z,74.78
2019-03-13T00:36:04.362Z,74.85
2019-03-13T00:38:34.770Z,74.55
2019-03-13T00:41:05.346Z,75.12
2019-03-13T00:43:35.650Z,74.50
2019-03-13T00:46:06.241Z,72.67
2019-03-13T00:48:36.638Z,72.68
2019-03-13T00:51:07.010Z,73.15
2019-03-13T00:53:37.290Z,73.64
2019-03-13T00:56:07.665Z,73.61
2019-03-13T00:58:37.967Z,73.73
2019-03-13T01:01:25.949Z,74.55
2019-03-13T01:04:21.164Z,74.46
2019-03-13T01:06:55.650Z,74.99
2019-03-13T01:09:25.915Z,75.59
2019-03-13T01:11:56.284Z,75.56
2019-03-13T01:14:26.631Z,74.82
2019-03-13T01:16:56.880Z,75.06
2019-03-13T01:19:27.228Z,74.20
2019-03-13T01:21:57.639Z,73.60
2019-03-13T01:24:28.184Z,73.93
2019-03-13T01:26:58.435Z,74.15
2019-03-13T01:29:28.770Z,74.20
2019-03-13T01:32:16.879Z,74.33
2019-03-13T01:34:53.905Z,74.58
2019-03-13T01:37:24.173Z,74.34
2019-03-13T01:39:54.473Z,74.77
2019-03-13T01:42:24.774Z,74.02
2019-03-13T01:44:55.057Z,73.69
2019-03-13T01:47:25.386Z,73.41
2019-03-13T01:49:55.649Z,73.31
2019-03-13T01:52:25.974Z,73.11
2019-03-13T01:54:56.135Z,73.09
2019-03-13T01:57:26.451Z,73.19
2019-03-13T01:59:56.882Z,73.42
2019-03-13T02:02:27.137Z,73.35
2019-03-13T02:04:57.534Z,72.83
2019-03-13T02:07:28.136Z,72.48
2019-03-13T02:09:58.526Z,72.33
2019-03-13T02:12:28.968Z,72.92
2019-03-13T02:14:59.214Z,73.00
2019-03-13T02:17:29.645Z,73.90
2019-03-13T02:19:59.897Z,74.94
2019-03-13T02:22:30.222Z,75.35
2019-03-13T02:25:00.453Z,75.47
2019-03-13T02:27:30.695Z,74.71
2019-03-13T02:30:01.017Z,75.12
2019-03-13T02:32:31.195Z,74.78
2019-03-13T02:35:01.486Z,73.43
2019-03-13T02:37:31.780Z,73.38
2019-03-13T02:40:03.086Z,73.97
2019-03-13T02:42:33.410Z,72.84
2019-03-13T02:45:03.746Z,72.94
2019-03-13T02:47:34.136Z,73.02
2019-03-13T02:50:04.867Z,73.53
2019-03-13T02:52:35.070Z,73.55
2019-03-13T02:55:05.756Z,73.76
2019-03-13T02:57:36.093Z,74.29
2019-03-13T03:00:10.436Z,74.32
2019-03-13T03:02:56.335Z,74.19
2019-03-13T03:05:26.628Z,74.17
2019-03-13T03:07:57.027Z,74.26
2019-03-13T03:10:28.066Z,74.10
2019-03-13T03:12:58.312Z,73.95
2019-03-13T03:15:28.635Z,74.06
2019-03-13T03:17:58.989Z,74.22
2019-03-13T03:20:29.280Z,74.17
2019-03-13T03:22:59.526Z,73.71
2019-03-13T03:25:29.803Z,73.51
2019-03-13T03:28:00.099Z,73.54
2019-03-13T03:30:30.514Z,73.86
2019-03-13T03:33:00.959Z,73.83
2019-03-13T03:35:31.371Z,73.92
2019-03-13T03:38:02.035Z,74.38
2019-03-13T03:40:32.200Z,74.27
2019-03-13T03:43:02.542Z,74.33
2019-03-13T03:45:33.000Z,74.51
2019-03-13T03:48:03.650Z,74.45
2019-03-13T03:50:34.137Z,74.12
2019-03-13T03:53:04.560Z,73.47
2019-03-13T03:55:34.783Z,73.01
2019-03-13T03:58:05.240Z,72.41
2019-03-13T04:00:35.650Z,71.85
2019-03-13T04:03:06.068Z,71.42
2019-03-13T04:05:36.398Z,70.18
2019-03-13T04:08:07.737Z,69.34
2019-03-13T04:10:38.067Z,69.80
2019-03-13T04:13:08.527Z,69.62
2019-03-13T04:15:38.922Z,68.87
2019-03-13T04:18:09.361Z,68.35
2019-03-13T04:20:39.713Z,67.66
2019-03-13T04:23:10.012Z,67.83
2019-03-13T04:25:40.441Z,67.83
2019-03-13T04:28:10.959Z,69.30
2019-03-13T04:30:41.387Z,70.47
2019-03-13T04:33:11.744Z,69.77
2019-03-13T04:35:41.933Z,68.54
2019-03-13T04:38:12.126Z,69.04
2019-03-13T04:40:42.642Z,69.04
2019-03-13T04:43:12.800Z,69.67
2019-03-13T04:45:43.040Z,69.51
2019-03-13T04:48:13.343Z,69.16
2019-03-13T04:50:43.749Z,68.93
2019-03-13T04:53:14.099Z,69.02
2019-03-13T04:55:44.413Z,68.62
2019-03-13T04:58:14.826Z,67.34
2019-03-13T05:00:46.280Z,67.44
2019-03-13T05:03:16.519Z,68.09
2019-03-13T05:05:53.241Z,68.67
2019-03-13T05:08:45.127Z,69.97
2019-03-13T05:11:10.168Z,70.73
2019-03-13T05:13:40.449Z,71.20
2019-03-13T05:16:10.812Z,71.35
2019-03-13T05:18:41.111Z,71.71
2019-03-13T05:21:11.436Z,71.84
2019-03-13T05:23:41.667Z,71.57
2019-03-13T05:26:11.855Z,71.60
2019-03-13T05:28:42.408Z,72.03
2019-03-13T05:31:12.792Z,71.43
2019-03-13T05:33:42.936Z,71.08
2019-03-13T05:36:16.516Z,70.77
2019-03-13T05:38:45.351Z,71.03
2019-03-13T05:41:15.651Z,70.96
2019-03-13T05:43:46.044Z,70.96
2019-03-13T05:46:16.373Z,70.69
2019-03-13T05:48:46.648Z,70.80
2019-03-13T05:51:16.986Z,70.61
2019-03-13T05:53:47.220Z,71.06
2019-03-13T05:56:17.603Z,71.04
2019-03-13T05:58:47.820Z,70.90
2019-03-13T06:01:18.268Z,71.13
2019-03-13T06:03:48.724Z,70.59
2019-03-13T06:06:19.030Z,70.61
2019-03-13T06:08:49.402Z,72.47
2019-03-13T06:11:19.724Z,74.59
2019-03-13T06:13:50.067Z,74.78
2019-03-13T06:16:20.514Z,74.94
2019-03-13T06:18:53.651Z,74.94
2019-03-13T06:21:23.963Z,75.06
2019-03-13T06:23:54.247Z,74.79
2019-03-13T06:26:24.677Z,74.87
2019-03-13T06:28:54.861Z,74.89
2019-03-13T06:31:25.044Z,74.76
2019-03-13T06:33:55.272Z,74.74
2019-03-13T06:36:25.622Z,75.32
2019-03-13T06:38:55.985Z,75.61
2019-03-13T06:41:27.894Z,76.23
2019-03-13T06:43:58.024Z,80.56
2019-03-13T06:46:28.293Z,83.95
2019-03-13T06:48:58.613Z,85.93
2019-03-13T06:51:28.940Z,88.37
2019-03-13T06:53:59.319Z,91.26
2019-03-13T06:56:30.969Z,92.33
2019-03-13T06:59:13.837Z,93.08
2019-03-13T07:02:06.147Z,92.34
2019-03-13T07:04:54.068Z,89.77
2019-03-13T07:07:37.489Z,88.12
2019-03-13T07:10:17.141Z,85.29
2019-03-13T07:13:12.413Z,84.16
2019-03-13T07:15:50.574Z,82.96
2019-03-13T07:18:25.708Z,81.98
2019-03-13T07:21:17.894Z,81.82
2019-03-13T07:23:57.067Z,81.36
2019-03-13T07:26:44.793Z,80.13
2019-03-13T07:29:37.033Z,78.65
2019-03-13T07:32:41.571Z,75.67
2019-03-13T07:35:28.061Z,75.01
2019-03-13T07:38:11.007Z,74.48
2019-03-13T07:41:12.510Z,73.60
2019-03-13T07:43:58.205Z,73.59
2019-03-13T07:46:43.651Z,70.59
2019-03-13T07:49:41.472Z,69.24
2019-03-13T07:52:32.521Z,69.30
2019-03-13T07:55:35.411Z,68.64
2019-03-13T07:58:19.544Z,69.62
2019-03-13T08:01:04.914Z,68.26
2019-03-13T08:03:44.982Z,67.32
2019-03-13T08:06:52.793Z,68.70
2019-03-13T08:09:53.843Z,67.29
2019-03-13T08:12:51.989Z,66.38
2019-03-13T08:15:40.324Z,65.51
2019-03-13T08:18:27.563Z,65.75
2019-03-13T08:21:21.008Z,64.09
2019-03-13T08:24:10.952Z,64.52
2019-03-13T08:26:59.053Z,64.17
2019-03-13T08:29:55.790Z,62.66
2019-03-13T08:32:34.240Z,62.46
2019-03-13T08:35:23.710Z,62.98
2019-03-13T08:38:01.865Z,62.74
2019-03-13T08:40:54.271Z,63.25
2019-03-13T08:43:39.731Z,63.09
2019-03-13T08:46:29.892Z,61.53
2019-03-13T08:49:10.799Z,63.42
2019-03-13T08:51:52.800Z,62.00
2019-03-13T08:54:41.955Z,62.06
2019-03-13T08:57:19.219Z,62.21
2019-03-13T08:59:58.452Z,61.49
2019-03-13T09:02:46.104Z,62.84
2019-03-13T09:05:34.374Z,62.42
2019-03-13T09:08:26.717Z,60.31
2019-03-13T09:11:15.604Z,59.38
2019-03-13T09:13:53.353Z,59.63
2019-03-13T09:16:45.387Z,60.23
2019-03-13T09:19:25.842Z,58.75
2019-03-13T09:22:12.188Z,58.30
2019-03-13T09:25:11.232Z,58.35
2019-03-13T09:27:38.292Z,56.19
2019-03-13T09:30:27.433Z,57.62
2019-03-13T09:33:15.574Z,57.46
2019-03-13T09:36:10.695Z,56.73
2019-03-13T09:38:52.110Z,56.05
2019-03-13T09:41:33.940Z,56.41
2019-03-13T09:44:23.042Z,55.63
2019-03-13T09:47:15.126Z,55.74
2019-03-13T09:50:19.437Z,55.87
2019-03-13T09:53:14.829Z,55.62
2019-03-13T09:56:04.059Z,55.44
2019-03-13T09:58:52.071Z,55.86
2019-03-13T10:01:41.429Z,55.64
2019-03-13T10:04:39.555Z,55.87
2019-03-13T10:07:27.533Z,55.16
2019-03-13T10:10:15.783Z,55.92
2019-03-13T10:12:56.501Z,56.14
2019-03-13T10:15:32.688Z,54.95
2019-03-13T10:18:30.672Z,55.47
2019-03-13T10:21:13.707Z,55.50
2019-03-13T10:23:51.841Z,55.67
2019-03-13T10:26:41.189Z,56.50
2019-03-13T10:29:23.427Z,60.12
2019-03-13T10:32:03.538Z,61.27
2019-03-13T10:34:58.954Z,61.05
2019-03-13T10:37:51.013Z,60.61
2019-03-13T10:40:40.341Z,59.79
2019-03-13T10:43:24.129Z,60.12
2019-03-13T10:46:01.156Z,58.37
2019-03-13T10:48:46.337Z,58.06
2019-03-13T10:51:35.494Z,58.46
2019-03-13T10:54:19.771Z,56.19
2019-03-13T10:57:15.668Z,55.70
2019-03-13T11:00:04.944Z,52.95
2019-03-13T11:02:51.184Z,52.37
2019-03-13T11:05:40.739Z,52.71
2019-03-13T11:08:25.702Z,53.29
2019-03-13T11:11:05.930Z,53.18
2019-03-13T11:13:43.773Z,53.60
2019-03-13T11:16:22.060Z,56.25
2019-03-13T11:19:09.018Z,53.56
2019-03-13T11:22:10.453Z,53.32
2019-03-13T11:24:47.317Z,52.44
2019-03-13T11:27:48.891Z,52.72
2019-03-13T11:30:41.394Z,52.46
2019-03-13T11:33:39.669Z,53.02
2019-03-13T11:36:35.307Z,53.15
2019-03-13T11:39:24.639Z,52.06
2019-03-13T11:42:12.931Z,51.91
2019-03-13T11:45:01.296Z,52.73
2019-03-13T11:48:01.860Z,53.72
2019-03-13T11:50:42.369Z,53.50
2019-03-13T11:53:34.645Z,53.45
2019-03-13T11:56:22.705Z,52.88
2019-03-13T11:59:11.019Z,52.57
2019-03-13T12:02:02.507Z,52.57
2019-03-13T12:04:43.907Z,53.16
2019-03-13T12:07:43.854Z,53.01
2019-03-13T12:10:35.300Z,51.91
2019-03-13T12:13:15.454Z,51.43
2019-03-13T12:16:10.745Z,50.92
2019-03-13T12:18:56.468Z,50.03
2019-03-13T12:21:45.733Z,49.12
2019-03-13T12:24:33.555Z,48.34
2019-03-13T12:27:41.404Z,48.63
2019-03-13T12:30:28.498Z,48.21
2019-03-13T12:33:08.323Z,49.62
2019-03-13T12:35:57.610Z,49.03
2019-03-13T12:38:46.978Z,49.36
2019-03-13T12:41:45.564Z,50.42
2019-03-13T12:44:34.764Z,50.46
2019-03-13T12:47:23.063Z,50.67
2019-03-13T12:50:04.668Z,50.90
2019-03-13T12:53:09.275Z,51.05
2019-03-13T12:56:16.818Z,50.60
2019-03-13T12:59:08.732Z,51.10
2019-03-13T13:01:58.051Z,49.84
2019-03-13T13:04:38.277Z,49.52
2019-03-13T13:07:26.502Z,50.46
2019-03-13T13:10:22.211Z,49.91
2019-03-13T13:13:05.431Z,50.43
2019-03-13T13:15:54.736Z,52.09
2019-03-13T13:18:47.838Z,53.02
2019-03-13T13:21:18.200Z,55.12
2019-03-13T13:23:48.667Z,59.15
2019-03-13T13:26:19.110Z,59.97
2019-03-13T13:28:49.410Z,60.89
2019-03-13T13:31:19.726Z,63.11
2019-03-13T13:33:50.033Z,62.22
2019-03-13T13:36:20.428Z,61.58
2019-03-13T13:38:50.814Z,60.81
2019-03-13T13:41:21.128Z,60.10
2019-03-13T13:43:51.430Z,56.58
2019-03-13T13:46:31.253Z,57.38
2019-03-13T13:49:01.554Z,57.55
2019-03-13T13:51:32.865Z,55.60
2019-03-13T13:54:03.400Z,54.95
2019-03-13T13:56:33.784Z,54.18
2019-03-13T13:59:04.160Z,54.00
2019-03-13T14:01:34.397Z,55.38
2019-03-13T14:04:04.758Z,55.37
2019-03-13T14:06:35.232Z,55.03
2019-03-13T14:09:06.697Z,56.49
2019-03-13T14:11:37.107Z,56.31
2019-03-13T14:14:07.537Z,56.31
2019-03-13T14:16:37.854Z,56.42
2019-03-13T14:19:08.153Z,57.42
2019-03-13T14:21:38.416Z,56.95
2019-03-13T14:24:08.768Z,56.39
2019-03-13T14:26:38.911Z,55.98
2019-03-13T14:29:09.259Z,55.59
2019-03-13T14:31:39.653Z,54.58
2019-03-13T14:34:10.014Z,54.50
2019-03-13T14:36:41.463Z,54.55
2019-03-13T14:39:11.705Z,54.04
2019-03-13T14:41:42.122Z,53.53
2019-03-13T14:44:12.425Z,53.43
2019-03-13T14:46:42.796Z,53.76
2019-03-13T14:49:13.100Z,52.72
2019-03-13T14:51:43.428Z,52.15
2019-03-13T14:54:13.852Z,51.66
2019-03-13T14:56:44.177Z,52.39
2019-03-13T14:59:14.561Z,52.70
2019-03-13T15:01:44.931Z,52.69
2019-03-13T15:04:15.268Z,52.17
2019-03-13T15:06:45.658Z,52.38
2019-03-13T15:09:15.919Z,52.92
2019-03-13T15:11:46.228Z,52.60
2019-03-13T15:14:16.586Z,52.95
2019-03-13T15:16:46.839Z,53.90
2019-03-13T15:19:17.488Z,54.05
2019-03-13T15:21:47.895Z,53.61
2019-03-13T15:24:18.253Z,52.73
2019-03-13T15:26:48.592Z,52.29
2019-03-13T15:29:18.941Z,52.69
2019-03-13T15:31:49.241Z,52.33
2019-03-13T15:34:19.561Z,53.10
2019-03-13T15:36:49.909Z,53.64
2019-03-13T15:39:20.257Z,53.64
2019-03-13T15:41:50.565Z,54.61
2019-03-13T15:44:21.059Z,54.92
2019-03-13T15:46:51.453Z,55.44
2019-03-13T15:49:21.661Z,55.58
2019-03-13T15:51:51.996Z,55.07
2019-03-13T15:54:22.309Z,55.80
2019-03-13T15:56:52.488Z,55.86
2019-03-13T15:59:22.681Z,55.98
2019-03-13T16:01:53.026Z,57.10
2019-03-13T16:04:23.336Z,57.30
2019-03-13T16:06:53.599Z,58.18
2019-03-13T16:09:23.829Z,58.63
2019-03-13T16:11:54.059Z,59.00
2019-03-13T16:14:24.490Z,60.23
2019-03-13T16:16:54.791Z,60.69
2019-03-13T16:19:25.232Z,60.86
2019-03-13T16:21:55.543Z,61.22
2019-03-13T16:24:25.856Z,60.94
2019-03-13T16:26:56.180Z,61.53
2019-03-13T16:29:26.425Z,61.47
2019-03-13T16:31:56.864Z,61.81
2019-03-13T16:34:27.185Z,62.25
2019-03-13T16:36:57.486Z,62.28
2019-03-13T16:39:27.835Z,62.06
2019-03-13T16:41:59.300Z,62.35
2019-03-13T16:44:30.766Z,62.30
2019-03-13T16:47:01.070Z,62.72
2019-03-13T16:49:35.399Z,62.61
2019-03-13T16:52:05.781Z,62.76
2019-03-13T16:54:36.061Z,62.96
2019-03-13T16:57:06.426Z,62.54
2019-03-13T16:59:36.857Z,62.41
2019-03-13T17:02:07.592Z,62.62
2019-03-13T17:04:37.942Z,62.28
2019-03-13T17:07:08.281Z,62.00
2019-03-13T17:09:38.661Z,62.49
2019-03-13T17:12:08.967Z,62.75
2019-03-13T17:14:39.322Z,62.97
2019-03-13T17:17:09.652Z,63.57
2019-03-13T17:19:39.983Z,64.17
2019-03-13T17:22:10.353Z,64.44
2019-03-13T17:24:40.731Z,65.34
2019-03-13T17:27:11.124Z,65.79
2019-03-13T17:29:42.480Z,66.49
2019-03-13T17:32:13.005Z,66.99
2019-03-13T17:34:43.145Z,67.35
2019-03-13T17:37:13.672Z,68.15
2019-03-13T17:39:43.983Z,68.28
2019-03-13T17:42:14.275Z,68.54
2019-03-13T17:44:44.524Z,68.88
2019-03-13T17:47:14.959Z,69.34
2019-03-13T17:49:45.202Z,69.45
2019-03-13T17:52:15.484Z,70.08
2019-03-13T17:54:45.647Z,70.12
2019-03-13T17:57:15.852Z,70.26
2019-03-13T17:59:46.100Z,69.79
2019-03-13T18:02:16.348Z,69.68
2019-03-13T18:04:46.760Z,70.83
2019-03-13T18:07:17.019Z,71.21
2019-03-13T18:09:47.287Z,72.16
2019-03-13T18:12:17.684Z,73.28
2019-03-13T18:14:49.049Z,73.23
2019-03-13T18:17:19.446Z,73.25
2019-03-13T18:19:50.221Z,74.51
2019-03-13T18:22:20.781Z,74.14
2019-03-13T18:24:51.023Z,73.95
2019-03-13T18:27:21.379Z,74.77
2019-03-13T18:29:51.731Z,74.64
2019-03-13T18:32:21.970Z,74.37
2019-03-13T18:34:52.231Z,73.84
2019-03-13T18:37:22.629Z,74.07
2019-03-13T18:39:52.888Z,74.14
2019-03-13T18:42:23.055Z,73.66
2019-03-13T18:44:53.285Z,73.53
2019-03-13T18:47:23.630Z,75.66
2019-03-13T18:49:54.036Z,76.38
2019-03-13T18:52:24.344Z,77.22
2019-03-13T18:54:54.556Z,78.16
2019-03-13T18:57:24.972Z,78.44
2019-03-13T18:59:55.370Z,78.95
2019-03-13T19:02:25.796Z,79.52
2019-03-13T19:04:57.624Z,79.74
2019-03-13T19:07:28.091Z,81.07
2019-03-13T19:09:58.512Z,82.93
2019-03-13T19:12:28.851Z,83.91
2019-03-13T19:14:59.231Z,84.38
2019-03-13T19:17:29.541Z,84.59
2019-03-13T19:20:00.930Z,85.37
2019-03-13T19:22:31.340Z,85.27
2019-03-13T19:25:01.690Z,85.85
2019-03-13T19:27:32.038Z,86.05
2019-03-13T19:30:02.509Z,85.94
2019-03-13T19:32:32.833Z,85.88
2019-03-13T19:35:03.270Z,86.19
2019-03-13T19:37:33.672Z,86.68
2019-03-13T19:40:04.253Z,86.59
2019-03-13T19:42:36.823Z,86.88
2019-03-13T19:45:10.208Z,86.84
2019-03-13T19:47:43.403Z,86.56
2019-03-13T19:50:16.075Z,86.30
2019-03-13T19:52:47.501Z,86.13
2019-03-13T19:55:18.006Z,86.09
2019-03-13T19:57:48.459Z,86.09
2019-03-13T20:00:21.311Z,86.24
2019-03-13T20:02:59.820Z,85.94
2019-03-13T20:05:25.774Z,85.91
2019-03-13T20:07:58.108Z,86.60
2019-03-13T20:10:28.487Z,87.36
2019-03-13T20:12:58.971Z,87.30
2019-03-13T20:15:29.651Z,87.56
2019-03-13T20:18:00.109Z,87.88
2019-03-13T20:20:30.446Z,87.73
2019-03-13T20:23:01.859Z,87.91
2019-03-13T20:25:32.371Z,87.72
2019-03-13T20:28:02.809Z,87.27
2019-03-13T20:30:33.245Z,86.66
2019-03-13T20:33:03.604Z,86.79
2019-03-13T20:35:36.531Z,86.37
2019-03-13T20:38:06.336Z,86.02
2019-03-13T20:40:40.893Z,87.04
2019-03-13T20:43:22.271Z,86.30
2019-03-13T20:45:52.637Z,86.09
2019-03-13T20:48:23.103Z,86.33
2019-03-13T20:50:53.569Z,86.59
2019-03-13T20:53:23.895Z,85.72
2019-03-13T20:55:54.155Z,85.81
2019-03-13T20:58:24.416Z,86.06
2019-03-13T21:03:32.208Z,87.04
2019-03-13T21:06:03.572Z,86.29
2019-03-13T21:08:33.991Z,85.26
2019-03-13T21:11:06.056Z,87.05
2019-03-13T21:13:36.426Z,87.31
2019-03-13T21:16:06.913Z,90.21
2019-03-13T21:18:37.284Z,90.42
2019-03-13T21:21:07.747Z,89.73
2019-03-13T21:23:38.104Z,91.32
2019-03-13T21:26:08.639Z,92.58
2019-03-13T21:28:38.958Z,92.68
2019-03-13T21:31:09.481Z,93.75
2019-03-13T21:33:39.896Z,92.03
2019-03-13T21:36:10.274Z,92.90
2019-03-13T21:38:40.597Z,92.99
2019-03-13T21:41:10.971Z,92.79
2019-03-13T21:43:41.325Z,92.99
2019-03-13T21:46:11.890Z,93.62
2019-03-13T21:48:42.275Z,94.08
2019-03-13T21:51:12.703Z,95.55
2019-03-13T21:53:43.179Z,96.12
2019-03-13T21:56:13.833Z,96.49
2019-03-13T21:58:44.303Z,96.60
2019-03-13T22:01:19.772Z,96.17
2019-03-13T22:03:46.819Z,96.02
2019-03-13T22:06:28.133Z,96.46
2019-03-13T22:08:49.310Z,96.77
2019-03-13T22:11:19.720Z,96.40
2019-03-13T22:13:50.061Z,97.09
2019-03-13T22:16:20.495Z,96.84
2019-03-13T22:18:52.925Z,96.12
2019-03-13T22:21:23.265Z,96.10
2019-03-13T22:23:53.645Z,96.80
2019-03-13T22:26:24.151Z,97.80
2019-03-13T22:28:54.658Z,97.17
2019-03-13T22:31:24.983Z,96.92
2019-03-13T22:33:55.435Z,96.85
2019-03-13T22:36:25.810Z,97.21
2019-03-13T22:38:56.197Z,97.49
2019-03-13T22:41:26.472Z,97.60
2019-03-13T22:43:56.851Z,97.72
2019-03-13T22:46:27.248Z,96.07
2019-03-13T22:48:58.667Z,95.98
2019-03-13T22:51:29.179Z,95.43
2019-03-13T22:53:59.799Z,95.42
2019-03-13T22:56:30.125Z,94.99
2019-03-13T22:59:00.761Z,94.84
2019-03-13T23:01:31.296Z,95.14
2019-03-13T23:04:01.741Z,95.37
2019-03-13T23:06:32.088Z,94.24
2019-03-13T23:09:04.051Z,94.49
2019-03-13T23:11:34.462Z,94.47
2019-03-13T23:14:04.901Z,93.48
2019-03-13T23:16:35.234Z,92.92
2019-03-13T23:19:05.686Z,93.10
2019-03-13T23:21:36.060Z,92.18
2019-03-13T23:24:06.538Z,92.46
2019-03-13T23:26:37.012Z,91.97
2019-03-13T23:29:07.455Z,91.73
2019-03-13T23:31:37.852Z,92.46
2019-03-13T23:34:08.418Z,92.52
2019-03-13T23:36:38.775Z,92.71
2019-03-13T23:39:09.895Z,93.04
2019-03-13T23:41:40.296Z,93.24
2019-03-13T23:44:10.938Z,91.58
2019-03-13T23:46:41.345Z,91.91
2019-03-13T23:49:11.735Z,92.60
2019-03-13T23:51:42.091Z,91.53
2019-03-13T23:54:12.372Z,90.64
2019-03-13T23:56:42.613Z,90.80
2019-03-13T23:59:13.021Z,90.98
